createdAt,value
2018-07-27T00:01:42.750Z,20.3
2018-07-27T00:06:42.692Z,20.3
2018-07-27T00:11:42.709Z,20.2
2018-07-27T00:16:42.742Z,20.2
2018-07-27T00:21:42.788Z,20.3
2018-07-27T00:26:42.821Z,20.2
2018-07-27T00:31:42.626Z,20.2
2018-07-27T00:36:42.787Z,20.2
2018-07-27T00:41:54.264Z,20.1
2018-07-27T00:46:54.110Z,20.1
2018-07-27T00:51:54.009Z,20.1
2018-07-27T00:56:54.067Z,20.1
2018-07-27T01:01:54.057Z,20
2018-07-27T01:06:54.057Z,19.9
2018-07-27T01:11:54.179Z,19.9
2018-07-27T01:16:56.076Z,19.8
2018-07-27T01:21:55.802Z,19.7
2018-07-27T01:27:08.287Z,19.6
2018-07-27T01:32:08.123Z,19.6
2018-07-27T01:37:08.190Z,19.5
2018-07-27T01:42:08.019Z,19.4
2018-07-27T01:47:08.021Z,19.3
2018-07-27T01:52:08.180Z,19.2
2018-07-27T01:57:08.039Z,19
2018-07-27T02:02:08.031Z,19.1
2018-07-27T02:07:08.037Z,19
2018-07-27T02:12:19.751Z,18.9
2018-07-27T02:17:19.484Z,18.9
2018-07-27T02:22:19.493Z,18.8
2018-07-27T02:27:19.439Z,18.9
2018-07-27T02:32:19.467Z,18.8
2018-07-27T02:37:19.644Z,18.8
2018-07-27T02:42:19.702Z,18.7
2018-07-27T02:47:19.916Z,18.7
2018-07-27T02:52:19.648Z,18.7
2018-07-27T02:57:32.305Z,18.6
2018-07-27T03:02:32.034Z,18.6
2018-07-27T03:07:32.060Z,18.6
2018-07-27T03:12:34.968Z,18.5
2018-07-27T03:17:32.219Z,18.5
2018-07-27T03:22:32.144Z,18.5
2018-07-27T03:27:32.050Z,18.5
2018-07-27T03:32:32.052Z,18.5
2018-07-27T03:37:32.040Z,18.5
2018-07-27T03:42:43.729Z,18.5
2018-07-27T03:47:43.578Z,18.5
2018-07-27T03:52:43.580Z,18.5
2018-07-27T03:57:43.655Z,18.5
2018-07-27T04:02:43.472Z,18.4
2018-07-27T04:07:43.451Z,18.4
2018-07-27T04:12:43.659Z,18.6
2018-07-27T04:17:43.462Z,18.6
2018-07-27T04:22:43.581Z,18.7
2018-07-27T04:27:55.825Z,19
2018-07-27T04:32:55.820Z,19.1
2018-07-27T04:37:55.696Z,19.1
2018-07-27T04:42:55.745Z,19.4
2018-07-27T04:47:55.665Z,19.7
2018-07-27T04:52:55.563Z,20.1
2018-07-27T04:57:55.568Z,20.5
2018-07-27T05:02:55.886Z,20.7
2018-07-27T05:07:55.808Z,21
2018-07-27T05:13:09.015Z,21.2
2018-07-27T05:18:08.760Z,21.4
2018-07-27T05:23:08.759Z,21.6
2018-07-27T05:28:08.757Z,21.7
2018-07-27T05:33:08.976Z,21.7
2018-07-27T05:38:09.015Z,21.9
2018-07-27T05:43:08.941Z,22.1
2018-07-27T05:48:09.120Z,22.2
2018-07-27T05:53:08.821Z,22.4
2018-07-27T05:58:21.223Z,22.6
2018-07-27T06:03:20.847Z,22.9
2018-07-27T06:08:21.100Z,23.3
2018-07-27T06:13:20.933Z,23.1
2018-07-27T06:18:20.895Z,23.4
2018-07-27T06:23:21.098Z,23.8
2018-07-27T06:28:21.160Z,23.9
2018-07-27T06:33:23.413Z,24.4
2018-07-27T06:38:23.146Z,24.4
2018-07-27T06:43:36.700Z,24.7
2018-07-27T06:48:36.646Z,24.8
2018-07-27T06:53:36.387Z,25
2018-07-27T06:58:36.452Z,25.3
2018-07-27T07:03:36.767Z,25.4
2018-07-27T07:08:36.441Z,25.9
2018-07-27T07:13:36.441Z,25.7
2018-07-27T07:18:39.814Z,25.7
2018-07-27T07:23:39.537Z,26.1
2018-07-27T07:28:51.810Z,26.3
2018-07-27T07:33:51.790Z,26.2
2018-07-27T07:38:51.574Z,26.2
2018-07-27T07:43:51.567Z,26.6
2018-07-27T07:48:51.572Z,26.7
2018-07-27T07:53:51.570Z,26.8
2018-07-27T07:58:51.594Z,27
2018-07-27T08:03:54.568Z,27.2
2018-07-27T08:08:54.276Z,27.2
2018-07-27T08:14:05.088Z,27.1
2018-07-27T08:19:05.001Z,27.3
2018-07-27T08:24:04.832Z,27.7
2018-07-27T08:29:04.843Z,27.4
2018-07-27T08:34:04.776Z,27.6
2018-07-27T08:39:04.884Z,28
2018-07-27T08:44:04.965Z,28.2
2018-07-27T08:49:09.285Z,28.2
2018-07-27T08:54:09.025Z,27.9
2018-07-27T08:59:18.542Z,27.8
2018-07-27T09:04:18.519Z,28.4
2018-07-27T09:09:18.418Z,29.2
2018-07-27T09:14:18.274Z,29.4
2018-07-27T09:19:18.529Z,28.8
2018-07-27T09:24:18.376Z,28.4
2018-07-27T09:29:18.287Z,28.1
2018-07-27T09:34:21.017Z,28.4
2018-07-27T09:39:21.004Z,28.5
2018-07-27T09:44:31.290Z,28.6
2018-07-27T09:49:31.224Z,28.5
2018-07-27T09:54:31.017Z,29.1
2018-07-27T09:59:31.186Z,29.2
2018-07-27T10:04:31.412Z,29.4
2018-07-27T10:09:31.385Z,29.9
2018-07-27T10:14:31.189Z,29.8
2018-07-27T10:19:31.752Z,29.7
2018-07-27T10:24:31.493Z,30.1
2018-07-27T10:29:43.907Z,29.8
2018-07-27T10:34:43.629Z,29.6
2018-07-27T10:39:43.631Z,29.4
2018-07-27T10:44:43.637Z,30
2018-07-27T10:49:43.639Z,30
2018-07-27T10:54:43.857Z,29.8
2018-07-27T10:59:43.890Z,30.2
2018-07-27T11:04:46.898Z,30.1
2018-07-27T11:09:46.767Z,29.8
2018-07-27T11:14:58.787Z,30
2018-07-27T11:19:58.504Z,30.2
2018-07-27T11:24:58.511Z,30.2
2018-07-27T11:29:58.530Z,30.5
2018-07-27T11:34:58.665Z,30.4
2018-07-27T11:39:58.524Z,30.4
2018-07-27T11:44:58.531Z,30.5
2018-07-27T11:50:00.515Z,31.1
2018-07-27T11:55:00.452Z,30.6
2018-07-27T12:00:10.744Z,30.6
2018-07-27T12:05:10.476Z,30.7
2018-07-27T12:10:10.662Z,30.8
2018-07-27T12:15:10.759Z,31
2018-07-27T12:20:10.491Z,31.1
2018-07-27T12:25:10.684Z,31
2018-07-27T12:30:10.584Z,31.1
2018-07-27T12:35:11.444Z,31.1
2018-07-27T12:40:11.161Z,31.2
2018-07-27T12:45:26.187Z,31.1
2018-07-27T12:50:25.904Z,31
2018-07-27T12:55:25.897Z,30.7
2018-07-27T13:00:25.996Z,31.1
2018-07-27T13:05:26.258Z,31.1
2018-07-27T13:10:26.017Z,30.9
2018-07-27T13:15:26.160Z,30.9
2018-07-27T13:20:29.718Z,30.9
2018-07-27T13:25:29.653Z,30.8
2018-07-27T13:30:42.078Z,30.8
2018-07-27T13:40:41.813Z,30.8
2018-07-27T13:45:41.934Z,30.9
2018-07-27T13:50:41.983Z,30.8
2018-07-27T13:55:41.807Z,31.2
2018-07-27T14:00:41.815Z,31.5
2018-07-27T14:05:43.640Z,31.5
2018-07-27T14:10:43.360Z,31.2
2018-07-27T14:15:55.805Z,30.9
2018-07-27T14:20:55.543Z,31
2018-07-27T14:25:55.476Z,31.2
2018-07-27T14:30:55.545Z,31.1
2018-07-27T14:35:55.638Z,31.5
2018-07-27T14:40:55.533Z,31.2
2018-07-27T14:45:56.890Z,31.1
2018-07-27T14:50:55.655Z,31
2018-07-27T14:55:55.828Z,31.3
2018-07-27T15:01:10.243Z,30.9
2018-07-27T15:06:10.156Z,30.7
2018-07-27T15:11:09.967Z,31.2
2018-07-27T15:16:10.017Z,31.1
2018-07-27T15:21:09.969Z,31.1
2018-07-27T15:26:10.186Z,30.8
2018-07-27T15:31:10.247Z,30.8
2018-07-27T15:36:15.852Z,30.7
2018-07-27T15:41:15.690Z,30.7
2018-07-27T15:46:26.383Z,30.4
2018-07-27T15:51:26.116Z,30.2
2018-07-27T15:56:26.106Z,30.4
2018-07-27T16:01:26.105Z,30.3
2018-07-27T16:06:26.102Z,30.3
2018-07-27T16:11:26.111Z,30.3
2018-07-27T16:16:26.310Z,30.5
2018-07-27T16:21:28.151Z,30.3
2018-07-27T16:26:27.880Z,29.9
2018-07-27T16:31:40.860Z,29.6
2018-07-27T16:36:40.757Z,29.4
2018-07-27T16:41:40.804Z,29.4
2018-07-27T16:46:40.580Z,29.2
2018-07-27T16:51:40.570Z,29
2018-07-27T16:56:40.800Z,29
2018-07-27T17:01:40.737Z,28.8
2018-07-27T17:06:41.114Z,28.7
2018-07-27T17:11:41.001Z,28.5
2018-07-27T17:16:53.020Z,28.4
2018-07-27T17:21:52.684Z,28.4
2018-07-27T17:26:52.878Z,28.2
2018-07-27T17:31:52.924Z,28.2
2018-07-27T17:36:52.748Z,28.2
2018-07-27T17:41:53.952Z,28.2
2018-07-27T17:46:54.153Z,28.2
2018-07-27T17:51:53.978Z,28.2
2018-07-27T17:56:53.960Z,28.2
2018-07-27T18:02:05.648Z,28.2
2018-07-27T18:07:05.594Z,28.2
2018-07-27T18:12:05.587Z,28.2
2018-07-27T18:17:05.423Z,28
2018-07-27T18:22:05.385Z,27.9
2018-07-27T18:27:05.372Z,27.8
2018-07-27T18:32:05.642Z,27.4
2018-07-27T18:37:05.846Z,27.3
2018-07-27T18:42:05.574Z,27.2
2018-07-27T18:47:18.151Z,27
2018-07-27T18:52:18.081Z,26.8
2018-07-27T18:57:17.884Z,26.4
2018-07-27T19:02:17.895Z,26.3
2018-07-27T19:07:18.065Z,26.2
2018-07-27T19:12:18.088Z,25.8
2018-07-27T19:17:17.890Z,25.7
2018-07-27T19:22:19.635Z,25.7
2018-07-27T19:27:18.991Z,25.5
2018-07-27T19:32:31.631Z,25.2
2018-07-27T19:37:31.392Z,25.1
2018-07-27T19:42:31.602Z,24.9
2018-07-27T19:47:31.534Z,24.8
2018-07-27T19:52:31.382Z,24.8
2018-07-27T19:57:31.379Z,24.7
2018-07-27T20:02:31.440Z,24.6
2018-07-27T20:07:32.887Z,24.4
2018-07-27T20:12:32.590Z,24.1
2018-07-27T20:17:44.526Z,24
2018-07-27T20:22:44.476Z,23.9
2018-07-27T20:27:44.392Z,23.8
2018-07-27T20:32:44.251Z,23.7
2018-07-27T20:37:44.484Z,23.7
2018-07-27T20:42:44.264Z,23.6
2018-07-27T20:47:44.247Z,23.3
2018-07-27T20:52:47.233Z,23.3
2018-07-27T20:57:46.956Z,23.4
2018-07-27T21:03:00.210Z,23.3
2018-07-27T21:07:59.956Z,23.2
2018-07-27T21:12:59.948Z,23
2018-07-27T21:17:59.933Z,23
2018-07-27T21:23:00.141Z,23
2018-07-27T21:28:00.182Z,23
2018-07-27T21:33:00.076Z,22.8
2018-07-27T21:38:01.289Z,22.8
2018-07-27T21:43:01.007Z,22.7
2018-07-27T21:48:16.353Z,22.6
2018-07-27T21:53:16.036Z,22.4
2018-07-27T21:58:16.267Z,22.5
2018-07-27T22:03:16.075Z,22.4
2018-07-27T22:08:16.194Z,22.3
2018-07-27T22:13:16.212Z,22.3
2018-07-27T22:18:16.132Z,22.2
2018-07-27T22:23:16.391Z,21.9
2018-07-27T22:28:16.175Z,21.9
2018-07-27T22:33:30.027Z,21.7
2018-07-27T22:38:30.050Z,21.7
2018-07-27T22:43:30.071Z,21.8
2018-07-27T22:48:29.922Z,21.5
2018-07-27T22:53:30.161Z,21.5
2018-07-27T22:58:30.139Z,21.6
2018-07-27T23:03:29.941Z,21.6
2018-07-27T23:08:29.969Z,21.1
2018-07-27T23:13:29.951Z,21.1
2018-07-27T23:18:42.297Z,21.4
2018-07-27T23:23:41.959Z,21.4
2018-07-27T23:28:42.137Z,21.2
2018-07-27T23:33:42.201Z,21.1
2018-07-27T23:38:42.235Z,21.1
2018-07-27T23:43:41.973Z,21
2018-07-27T23:48:42.020Z,21
2018-07-27T23:53:42.358Z,20.9
2018-07-27T23:58:42.090Z,20.8
